sensor_id;sensor_type;location;lat;lon;timestamp;P1;durP1;ratioP1;P2;durP2;ratioP2
20609;SDS011;10463;52.378;9.688;2024-01-10T00:01:52;3.17;;;2.17;;
20609;SDS011;10463;52.378;9.688;2024-01-10T00:04:37;4.20;;;2.33;;
20609;SDS011;10463;52.378;9.688;2024-01-10T00:07:22;3.03;;;2.33;;
20609;SDS011;10463;52.378;9.688;2024-01-10T00:10:08;2.33;;;2.00;;
20609;SDS011;10463;52.378;9.688;2024-01-10T00:12:53;2.80;;;2.13;;
20609;SDS011;10463;52.378;9.688;2024-01-10T00:15:38;2.60;;;2.30;;
20609;SDS011;10463;52.378;9.688;2024-01-10T00:18:24;3.57;;;2.53;;
20609;SDS011;10463;52.378;9.688;2024-01-10T00:21:09;2.63;;;2.33;;
20609;SDS011;10463;52.378;9.688;2024-01-10T00:23:55;2.87;;;2.57;;
20609;SDS011;10463;52.378;9.688;2024-01-10T00:26:39;3.03;;;2.13;;
20609;SDS011;10463;52.378;9.688;2024-01-10T00:29:24;3.10;;;2.50;;
20609;SDS011;10463;52.378;9.688;2024-01-10T00:32:08;2.67;;;1.93;;
20609;SDS011;10463;52.378;9.688;2024-01-10T00:34:54;2.70;;;2.30;;
20609;SDS011;10463;52.378;9.688;2024-01-10T00:37:39;3.60;;;2.67;;
20609;SDS011;10463;52.378;9.688;2024-01-10T00:40:24;3.17;;;2.40;;
20609;SDS011;10463;52.378;9.688;2024-01-10T00:43:08;2.73;;;1.97;;
20609;SDS011;10463;52.378;9.688;2024-01-10T00:45:53;4.50;;;3.10;;
20609;SDS011;10463;52.378;9.688;2024-01-10T00:48:38;3.43;;;2.53;;
20609;SDS011;10463;52.378;9.688;2024-01-10T00:51:25;3.10;;;2.07;;
20609;SDS011;10463;52.378;9.688;2024-01-10T00:54:09;3.70;;;2.53;;
20609;SDS011;10463;52.378;9.688;2024-01-10T00:56:54;3.60;;;2.43;;
20609;SDS011;10463;52.378;9.688;2024-01-10T00:59:39;2.43;;;1.80;;
20609;SDS011;10463;52.378;9.688;2024-01-10T01:02:23;3.80;;;2.70;;
20609;SDS011;10463;52.378;9.688;2024-01-10T01:05:08;3.30;;;2.50;;
20609;SDS011;10463;52.378;9.688;2024-01-10T01:07:54;3.57;;;2.60;;
20609;SDS011;10463;52.378;9.688;2024-01-10T01:10:39;3.53;;;2.90;;
20609;SDS011;10463;52.378;9.688;2024-01-10T01:13:23;3.80;;;3.00;;
20609;SDS011;10463;52.378;9.688;2024-01-10T01:16:08;3.30;;;2.40;;
20609;SDS011;10463;52.378;9.688;2024-01-10T01:18:53;3.30;;;2.60;;
20609;SDS011;10463;52.378;9.688;2024-01-10T01:21:38;3.07;;;2.30;;
20609;SDS011;10463;52.378;9.688;2024-01-10T01:24:24;2.90;;;2.40;;
20609;SDS011;10463;52.378;9.688;2024-01-10T01:27:08;3.77;;;2.60;;
20609;SDS011;10463;52.378;9.688;2024-01-10T01:29:53;4.73;;;2.97;;
20609;SDS011;10463;52.378;9.688;2024-01-10T01:32:38;4.00;;;2.47;;
20609;SDS011;10463;52.378;9.688;2024-01-10T01:35:22;3.17;;;2.00;;
20609;SDS011;10463;52.378;9.688;2024-01-10T01:38:07;3.57;;;2.37;;
20609;SDS011;10463;52.378;9.688;2024-01-10T01:40:53;4.17;;;3.13;;
20609;SDS011;10463;52.378;9.688;2024-01-10T01:43:38;3.67;;;2.57;;
20609;SDS011;10463;52.378;9.688;2024-01-10T01:46:22;3.17;;;2.50;;
20609;SDS011;10463;52.378;9.688;2024-01-10T01:49:08;3.63;;;2.30;;
20609;SDS011;10463;52.378;9.688;2024-01-10T01:51:55;3.03;;;2.40;;
20609;SDS011;10463;52.378;9.688;2024-01-10T01:54:40;3.10;;;2.57;;
20609;SDS011;10463;52.378;9.688;2024-01-10T01:57:26;3.90;;;2.60;;
20609;SDS011;10463;52.378;9.688;2024-01-10T02:00:11;4.20;;;3.00;;
20609;SDS011;10463;52.378;9.688;2024-01-10T02:02:57;2.77;;;2.30;;
20609;SDS011;10463;52.378;9.688;2024-01-10T02:05:42;3.37;;;2.53;;
20609;SDS011;10463;52.378;9.688;2024-01-10T02:08:27;3.83;;;3.13;;
20609;SDS011;10463;52.378;9.688;2024-01-10T02:11:11;3.83;;;3.00;;
20609;SDS011;10463;52.378;9.688;2024-01-10T02:13:57;4.20;;;3.07;;
20609;SDS011;10463;52.378;9.688;2024-01-10T02:16:42;3.70;;;2.87;;
20609;SDS011;10463;52.378;9.688;2024-01-10T02:19:27;3.23;;;2.63;;
20609;SDS011;10463;52.378;9.688;2024-01-10T02:22:13;3.80;;;2.87;;
20609;SDS011;10463;52.378;9.688;2024-01-10T02:24:58;3.67;;;2.90;;
20609;SDS011;10463;52.378;9.688;2024-01-10T02:27:43;4.00;;;2.93;;
20609;SDS011;10463;52.378;9.688;2024-01-10T02:30:28;5.00;;;3.27;;
20609;SDS011;10463;52.378;9.688;2024-01-10T02:33:13;3.27;;;2.80;;
20609;SDS011;10463;52.378;9.688;2024-01-10T02:35:57;3.83;;;2.70;;
20609;SDS011;10463;52.378;9.688;2024-01-10T02:38:42;3.90;;;2.53;;
20609;SDS011;10463;52.378;9.688;2024-01-10T02:41:28;4.27;;;2.83;;
20609;SDS011;10463;52.378;9.688;2024-01-10T02:44:12;3.57;;;2.27;;
20609;SDS011;10463;52.378;9.688;2024-01-10T02:46:58;3.57;;;2.67;;
20609;SDS011;10463;52.378;9.688;2024-01-10T02:49:42;3.73;;;2.80;;
20609;SDS011;10463;52.378;9.688;2024-01-10T02:52:27;2.30;;;1.97;;
20609;SDS011;10463;52.378;9.688;2024-01-10T02:55:11;2.70;;;2.30;;
20609;SDS011;10463;52.378;9.688;2024-01-10T02:57:57;3.33;;;2.23;;
20609;SDS011;10463;52.378;9.688;2024-01-10T03:00:42;3.93;;;3.00;;
20609;SDS011;10463;52.378;9.688;2024-01-10T03:03:27;3.50;;;2.80;;
20609;SDS011;10463;52.378;9.688;2024-01-10T03:06:11;3.33;;;2.47;;
20609;SDS011;10463;52.378;9.688;2024-01-10T03:08:56;3.63;;;2.60;;
20609;SDS011;10463;52.378;9.688;2024-01-10T03:14:25;3.40;;;2.40;;
20609;SDS011;10463;52.378;9.688;2024-01-10T03:17:10;3.90;;;2.90;;
20609;SDS011;10463;52.378;9.688;2024-01-10T03:19:54;3.83;;;2.63;;
20609;SDS011;10463;52.378;9.688;2024-01-10T03:22:39;4.80;;;2.70;;
20609;SDS011;10463;52.378;9.688;2024-01-10T03:25:23;4.10;;;2.53;;
20609;SDS011;10463;52.378;9.688;2024-01-10T03:28:08;4.93;;;3.27;;
20609;SDS011;10463;52.378;9.688;2024-01-10T03:30:53;3.60;;;2.80;;
20609;SDS011;10463;52.378;9.688;2024-01-10T03:33:38;5.13;;;3.10;;
20609;SDS011;10463;52.378;9.688;2024-01-10T03:36:23;4.00;;;2.67;;
20609;SDS011;10463;52.378;9.688;2024-01-10T03:39:08;3.77;;;2.97;;
20609;SDS011;10463;52.378;9.688;2024-01-10T03:41:54;4.80;;;3.27;;
20609;SDS011;10463;52.378;9.688;2024-01-10T03:44:38;6.30;;;3.27;;
20609;SDS011;10463;52.378;9.688;2024-01-10T03:47:24;3.70;;;3.10;;
20609;SDS011;10463;52.378;9.688;2024-01-10T03:50:09;4.00;;;2.93;;
20609;SDS011;10463;52.378;9.688;2024-01-10T03:52:53;3.60;;;2.83;;
20609;SDS011;10463;52.378;9.688;2024-01-10T03:55:38;3.40;;;2.97;;
20609;SDS011;10463;52.378;9.688;2024-01-10T03:58:23;3.73;;;2.73;;
20609;SDS011;10463;52.378;9.688;2024-01-10T04:01:08;3.10;;;2.57;;
20609;SDS011;10463;52.378;9.688;2024-01-10T04:03:54;4.40;;;2.83;;
20609;SDS011;10463;52.378;9.688;2024-01-10T04:06:39;5.50;;;3.67;;
20609;SDS011;10463;52.378;9.688;2024-01-10T04:09:23;3.63;;;2.43;;
20609;SDS011;10463;52.378;9.688;2024-01-10T04:12:08;4.10;;;2.63;;
20609;SDS011;10463;52.378;9.688;2024-01-10T04:14:53;3.80;;;3.13;;
20609;SDS011;10463;52.378;9.688;2024-01-10T04:17:37;4.07;;;2.93;;
20609;SDS011;10463;52.378;9.688;2024-01-10T04:20:23;4.93;;;3.20;;
20609;SDS011;10463;52.378;9.688;2024-01-10T04:23:08;4.10;;;3.13;;
20609;SDS011;10463;52.378;9.688;2024-01-10T04:25:52;4.93;;;3.10;;
20609;SDS011;10463;52.378;9.688;2024-01-10T04:28:38;4.80;;;3.43;;
20609;SDS011;10463;52.378;9.688;2024-01-10T04:31:24;4.83;;;3.63;;
20609;SDS011;10463;52.378;9.688;2024-01-10T04:34:08;4.20;;;3.10;;
20609;SDS011;10463;52.378;9.688;2024-01-10T04:36:54;6.30;;;3.10;;
20609;SDS011;10463;52.378;9.688;2024-01-10T04:39:39;4.40;;;3.27;;
20609;SDS011;10463;52.378;9.688;2024-01-10T04:42:24;3.73;;;3.07;;
20609;SDS011;10463;52.378;9.688;2024-01-10T04:45:09;4.13;;;3.00;;
20609;SDS011;10463;52.378;9.688;2024-01-10T04:47:54;4.10;;;3.10;;
20609;SDS011;10463;52.378;9.688;2024-01-10T04:50:38;4.10;;;3.17;;
20609;SDS011;10463;52.378;9.688;2024-01-10T04:53:25;4.07;;;3.00;;
20609;SDS011;10463;52.378;9.688;2024-01-10T04:56:09;4.50;;;3.40;;
20609;SDS011;10463;52.378;9.688;2024-01-10T04:58:53;4.77;;;3.80;;
20609;SDS011;10463;52.378;9.688;2024-01-10T05:01:38;3.60;;;3.00;;
20609;SDS011;10463;52.378;9.688;2024-01-10T05:04:23;4.40;;;3.00;;
20609;SDS011;10463;52.378;9.688;2024-01-10T05:07:07;4.73;;;3.30;;
20609;SDS011;10463;52.378;9.688;2024-01-10T05:09:53;4.73;;;3.20;;
20609;SDS011;10463;52.378;9.688;2024-01-10T05:12:37;4.13;;;3.33;;
20609;SDS011;10463;52.378;9.688;2024-01-10T05:15:22;5.67;;;3.70;;
20609;SDS011;10463;52.378;9.688;2024-01-10T05:18:07;4.50;;;3.63;;
20609;SDS011;10463;52.378;9.688;2024-01-10T05:20:52;5.37;;;3.93;;
20609;SDS011;10463;52.378;9.688;2024-01-10T05:23:36;4.77;;;4.00;;
20609;SDS011;10463;52.378;9.688;2024-01-10T05:26:24;5.27;;;3.90;;
20609;SDS011;10463;52.378;9.688;2024-01-10T05:29:08;4.70;;;3.30;;
20609;SDS011;10463;52.378;9.688;2024-01-10T05:31:53;5.33;;;3.93;;
20609;SDS011;10463;52.378;9.688;2024-01-10T05:34:37;6.10;;;4.20;;
20609;SDS011;10463;52.378;9.688;2024-01-10T05:37:22;5.50;;;3.43;;
20609;SDS011;10463;52.378;9.688;2024-01-10T05:40:07;5.97;;;3.93;;
20609;SDS011;10463;52.378;9.688;2024-01-10T05:42:54;4.77;;;3.87;;
20609;SDS011;10463;52.378;9.688;2024-01-10T05:45:38;5.50;;;3.80;;
20609;SDS011;10463;52.378;9.688;2024-01-10T05:48:23;5.50;;;3.60;;
20609;SDS011;10463;52.378;9.688;2024-01-10T05:51:08;5.47;;;3.60;;
20609;SDS011;10463;52.378;9.688;2024-01-10T05:53:52;6.20;;;3.97;;
20609;SDS011;10463;52.378;9.688;2024-01-10T05:56:37;5.03;;;3.80;;
20609;SDS011;10463;52.378;9.688;2024-01-10T05:59:23;5.60;;;4.40;;
20609;SDS011;10463;52.378;9.688;2024-01-10T06:02:09;4.70;;;3.43;;
20609;SDS011;10463;52.378;9.688;2024-01-10T06:04:53;5.10;;;3.93;;
20609;SDS011;10463;52.378;9.688;2024-01-10T06:07:39;4.53;;;3.87;;
20609;SDS011;10463;52.378;9.688;2024-01-10T06:10:26;5.63;;;3.77;;
20609;SDS011;10463;52.378;9.688;2024-01-10T06:13:11;6.03;;;3.87;;
20609;SDS011;10463;52.378;9.688;2024-01-10T06:15:57;4.53;;;3.20;;
20609;SDS011;10463;52.378;9.688;2024-01-10T06:18:42;3.67;;;3.13;;
20609;SDS011;10463;52.378;9.688;2024-01-10T06:21:26;6.20;;;4.60;;
20609;SDS011;10463;52.378;9.688;2024-01-10T06:24:11;4.47;;;3.33;;
20609;SDS011;10463;52.378;9.688;2024-01-10T06:26:56;5.30;;;3.77;;
20609;SDS011;10463;52.378;9.688;2024-01-10T06:29:40;4.40;;;3.70;;
20609;SDS011;10463;52.378;9.688;2024-01-10T06:32:26;4.60;;;3.97;;
20609;SDS011;10463;52.378;9.688;2024-01-10T06:35:11;4.87;;;3.87;;
20609;SDS011;10463;52.378;9.688;2024-01-10T06:37:55;4.87;;;3.90;;
20609;SDS011;10463;52.378;9.688;2024-01-10T06:40:40;4.90;;;3.93;;
20609;SDS011;10463;52.378;9.688;2024-01-10T06:43:24;6.70;;;4.37;;
20609;SDS011;10463;52.378;9.688;2024-01-10T06:46:09;4.80;;;3.80;;
20609;SDS011;10463;52.378;9.688;2024-01-10T06:48:56;5.73;;;4.27;;
20609;SDS011;10463;52.378;9.688;2024-01-10T06:51:41;5.70;;;3.73;;
20609;SDS011;10463;52.378;9.688;2024-01-10T06:54:25;6.53;;;3.97;;
20609;SDS011;10463;52.378;9.688;2024-01-10T06:57:10;4.83;;;3.87;;
20609;SDS011;10463;52.378;9.688;2024-01-10T06:59:54;5.27;;;3.80;;
20609;SDS011;10463;52.378;9.688;2024-01-10T07:02:39;4.60;;;3.67;;
20609;SDS011;10463;52.378;9.688;2024-01-10T07:05:26;6.30;;;4.60;;
20609;SDS011;10463;52.378;9.688;2024-01-10T07:08:12;5.60;;;3.90;;
20609;SDS011;10463;52.378;9.688;2024-01-10T07:10:56;5.23;;;4.43;;
20609;SDS011;10463;52.378;9.688;2024-01-10T07:13:41;7.30;;;5.07;;
20609;SDS011;10463;52.378;9.688;2024-01-10T07:16:25;4.47;;;3.73;;
20609;SDS011;10463;52.378;9.688;2024-01-10T07:19:10;6.77;;;3.93;;
20609;SDS011;10463;52.378;9.688;2024-01-10T07:21:58;6.27;;;4.73;;
20609;SDS011;10463;52.378;9.688;2024-01-10T07:24:43;6.93;;;4.40;;
20609;SDS011;10463;52.378;9.688;2024-01-10T07:27:27;6.07;;;4.07;;
20609;SDS011;10463;52.378;9.688;2024-01-10T07:30:12;5.13;;;4.40;;
20609;SDS011;10463;52.378;9.688;2024-01-10T07:32:59;6.40;;;4.40;;
20609;SDS011;10463;52.378;9.688;2024-01-10T07:35:45;5.93;;;4.87;;
20609;SDS011;10463;52.378;9.688;2024-01-10T07:38:31;7.90;;;4.70;;
20609;SDS011;10463;52.378;9.688;2024-01-10T07:41:15;7.90;;;5.43;;
20609;SDS011;10463;52.378;9.688;2024-01-10T07:44:00;8.20;;;5.10;;
20609;SDS011;10463;52.378;9.688;2024-01-10T07:46:45;5.63;;;4.80;;
20609;SDS011;10463;52.378;9.688;2024-01-10T07:49:29;8.27;;;5.50;;
20609;SDS011;10463;52.378;9.688;2024-01-10T07:52:15;7.90;;;5.87;;
20609;SDS011;10463;52.378;9.688;2024-01-10T07:55:05;7.37;;;5.40;;
20609;SDS011;10463;52.378;9.688;2024-01-10T07:57:50;9.87;;;6.27;;
20609;SDS011;10463;52.378;9.688;2024-01-10T08:00:35;7.20;;;5.17;;
20609;SDS011;10463;52.378;9.688;2024-01-10T08:03:19;8.30;;;5.27;;
20609;SDS011;10463;52.378;9.688;2024-01-10T08:06:04;7.43;;;5.43;;
20609;SDS011;10463;52.378;9.688;2024-01-10T08:08:50;7.50;;;5.17;;
20609;SDS011;10463;52.378;9.688;2024-01-10T08:11:36;8.10;;;5.13;;
20609;SDS011;10463;52.378;9.688;2024-01-10T08:14:22;8.60;;;5.40;;
20609;SDS011;10463;52.378;9.688;2024-01-10T08:17:06;7.17;;;5.53;;
20609;SDS011;10463;52.378;9.688;2024-01-10T08:19:51;6.60;;;5.27;;
20609;SDS011;10463;52.378;9.688;2024-01-10T08:22:36;6.60;;;5.13;;
20609;SDS011;10463;52.378;9.688;2024-01-10T08:25:21;6.90;;;5.57;;
20609;SDS011;10463;52.378;9.688;2024-01-10T08:28:08;7.37;;;5.10;;
20609;SDS011;10463;52.378;9.688;2024-01-10T08:30:53;6.97;;;5.13;;
20609;SDS011;10463;52.378;9.688;2024-01-10T08:33:38;6.83;;;4.90;;
20609;SDS011;10463;52.378;9.688;2024-01-10T08:36:23;6.67;;;5.20;;
20609;SDS011;10463;52.378;9.688;2024-01-10T08:39:11;5.60;;;5.00;;
20609;SDS011;10463;52.378;9.688;2024-01-10T08:41:56;7.33;;;4.50;;
20609;SDS011;10463;52.378;9.688;2024-01-10T08:44:42;8.80;;;5.30;;
20609;SDS011;10463;52.378;9.688;2024-01-10T08:47:27;6.57;;;4.93;;
20609;SDS011;10463;52.378;9.688;2024-01-10T08:50:15;7.50;;;5.50;;
20609;SDS011;10463;52.378;9.688;2024-01-10T08:53:00;7.50;;;4.87;;
20609;SDS011;10463;52.378;9.688;2024-01-10T08:55:48;6.40;;;5.27;;
20609;SDS011;10463;52.378;9.688;2024-01-10T08:58:33;7.53;;;5.60;;
20609;SDS011;10463;52.378;9.688;2024-01-10T09:01:18;6.97;;;5.80;;
20609;SDS011;10463;52.378;9.688;2024-01-10T09:04:03;9.23;;;6.10;;
20609;SDS011;10463;52.378;9.688;2024-01-10T09:06:48;8.73;;;6.00;;
20609;SDS011;10463;52.378;9.688;2024-01-10T09:09:33;8.40;;;6.20;;
20609;SDS011;10463;52.378;9.688;2024-01-10T09:12:17;9.60;;;6.60;;
20609;SDS011;10463;52.378;9.688;2024-01-10T09:15:02;7.70;;;5.90;;
20609;SDS011;10463;52.378;9.688;2024-01-10T09:17:49;7.17;;;6.20;;
20609;SDS011;10463;52.378;9.688;2024-01-10T09:20:34;7.30;;;6.17;;
20609;SDS011;10463;52.378;9.688;2024-01-10T09:23:19;9.13;;;6.30;;
20609;SDS011;10463;52.378;9.688;2024-01-10T09:26:04;7.83;;;6.03;;
20609;SDS011;10463;52.378;9.688;2024-01-10T09:28:48;7.27;;;6.13;;
20609;SDS011;10463;52.378;9.688;2024-01-10T09:31:33;8.73;;;6.00;;
20609;SDS011;10463;52.378;9.688;2024-01-10T09:34:19;7.70;;;5.67;;
20609;SDS011;10463;52.378;9.688;2024-01-10T09:37:04;8.93;;;6.53;;
20609;SDS011;10463;52.378;9.688;2024-01-10T09:39:49;8.00;;;5.80;;
20609;SDS011;10463;52.378;9.688;2024-01-10T09:42:34;8.10;;;6.07;;
20609;SDS011;10463;52.378;9.688;2024-01-10T09:45:20;8.50;;;6.00;;
20609;SDS011;10463;52.378;9.688;2024-01-10T09:48:06;7.57;;;5.43;;
20609;SDS011;10463;52.378;9.688;2024-01-10T09:50:53;8.20;;;6.10;;
20609;SDS011;10463;52.378;9.688;2024-01-10T09:53:37;8.63;;;6.63;;
20609;SDS011;10463;52.378;9.688;2024-01-10T09:56:33;8.13;;;6.00;;
20609;SDS011;10463;52.378;9.688;2024-01-10T09:59:17;8.60;;;6.00;;
20609;SDS011;10463;52.378;9.688;2024-01-10T10:02:03;9.00;;;7.20;;
20609;SDS011;10463;52.378;9.688;2024-01-10T10:04:53;7.70;;;6.10;;
20609;SDS011;10463;52.378;9.688;2024-01-10T10:07:46;7.23;;;5.40;;
20609;SDS011;10463;52.378;9.688;2024-01-10T10:10:30;7.13;;;5.23;;
20609;SDS011;10463;52.378;9.688;2024-01-10T10:13:24;7.60;;;5.97;;
20609;SDS011;10463;52.378;9.688;2024-01-10T10:16:09;8.23;;;6.90;;
20609;SDS011;10463;52.378;9.688;2024-01-10T10:18:56;8.60;;;6.23;;
20609;SDS011;10463;52.378;9.688;2024-01-10T10:21:42;9.93;;;7.27;;
20609;SDS011;10463;52.378;9.688;2024-01-10T10:24:28;9.27;;;7.00;;
20609;SDS011;10463;52.378;9.688;2024-01-10T10:27:13;8.03;;;6.40;;
20609;SDS011;10463;52.378;9.688;2024-01-10T10:29:58;8.73;;;6.43;;
20609;SDS011;10463;52.378;9.688;2024-01-10T10:32:44;8.43;;;6.33;;
20609;SDS011;10463;52.378;9.688;2024-01-10T10:35:29;6.70;;;5.40;;
20609;SDS011;10463;52.378;9.688;2024-01-10T10:38:14;7.30;;;5.90;;
20609;SDS011;10463;52.378;9.688;2024-01-10T10:41:00;8.23;;;6.00;;
20609;SDS011;10463;52.378;9.688;2024-01-10T10:43:45;9.30;;;6.40;;
20609;SDS011;10463;52.378;9.688;2024-01-10T10:46:33;8.80;;;6.00;;
20609;SDS011;10463;52.378;9.688;2024-01-10T10:49:23;7.97;;;6.23;;
20609;SDS011;10463;52.378;9.688;2024-01-10T10:52:14;8.60;;;6.90;;
20609;SDS011;10463;52.378;9.688;2024-01-10T10:55:00;8.33;;;5.90;;
20609;SDS011;10463;52.378;9.688;2024-01-10T10:57:49;10.60;;;7.87;;
20609;SDS011;10463;52.378;9.688;2024-01-10T11:00:35;9.23;;;8.10;;
20609;SDS011;10463;52.378;9.688;2024-01-10T11:03:20;11.80;;;8.50;;
20609;SDS011;10463;52.378;9.688;2024-01-10T11:06:05;10.30;;;7.87;;
20609;SDS011;10463;52.378;9.688;2024-01-10T11:08:52;9.30;;;6.90;;
20609;SDS011;10463;52.378;9.688;2024-01-10T11:11:50;9.50;;;7.00;;
20609;SDS011;10463;52.378;9.688;2024-01-10T11:15:02;11.03;;;7.47;;
20609;SDS011;10463;52.378;9.688;2024-01-10T11:18:09;11.30;;;8.73;;
20609;SDS011;10463;52.378;9.688;2024-01-10T11:21:12;11.13;;;8.40;;
20609;SDS011;10463;52.378;9.688;2024-01-10T11:24:05;12.23;;;9.27;;
20609;SDS011;10463;52.378;9.688;2024-01-10T11:27:06;12.50;;;9.00;;
20609;SDS011;10463;52.378;9.688;2024-01-10T11:29:51;12.03;;;8.70;;
20609;SDS011;10463;52.378;9.688;2024-01-10T11:32:38;10.87;;;9.00;;
20609;SDS011;10463;52.378;9.688;2024-01-10T11:35:22;13.43;;;9.97;;
20609;SDS011;10463;52.378;9.688;2024-01-10T11:38:08;13.50;;;10.57;;
20609;SDS011;10463;52.378;9.688;2024-01-10T11:40:56;12.97;;;10.60;;
20609;SDS011;10463;52.378;9.688;2024-01-10T11:43:41;12.70;;;9.83;;
20609;SDS011;10463;52.378;9.688;2024-01-10T11:46:27;13.40;;;9.97;;
20609;SDS011;10463;52.378;9.688;2024-01-10T11:49:14;16.80;;;10.80;;
20609;SDS011;10463;52.378;9.688;2024-01-10T11:52:00;12.43;;;10.43;;
20609;SDS011;10463;52.378;9.688;2024-01-10T11:54:45;11.10;;;9.20;;
20609;SDS011;10463;52.378;9.688;2024-01-10T11:57:30;11.53;;;9.87;;
20609;SDS011;10463;52.378;9.688;2024-01-10T12:00:18;16.00;;;10.50;;
20609;SDS011;10463;52.378;9.688;2024-01-10T12:03:06;13.60;;;9.83;;
20609;SDS011;10463;52.378;9.688;2024-01-10T12:05:51;12.00;;;9.30;;
20609;SDS011;10463;52.378;9.688;2024-01-10T12:08:36;12.20;;;10.03;;
20609;SDS011;10463;52.378;9.688;2024-01-10T12:11:20;12.80;;;10.17;;
20609;SDS011;10463;52.378;9.688;2024-01-10T12:14:05;13.23;;;10.43;;
20609;SDS011;10463;52.378;9.688;2024-01-10T12:16:52;14.37;;;10.77;;
20609;SDS011;10463;52.378;9.688;2024-01-10T12:19:39;14.43;;;11.53;;
20609;SDS011;10463;52.378;9.688;2024-01-10T12:22:25;13.97;;;10.03;;
20609;SDS011;10463;52.378;9.688;2024-01-10T12:25:10;13.23;;;10.40;;
20609;SDS011;10463;52.378;9.688;2024-01-10T12:27:55;11.93;;;9.37;;
20609;SDS011;10463;52.378;9.688;2024-01-10T12:30:46;12.30;;;9.67;;
20609;SDS011;10463;52.378;9.688;2024-01-10T12:33:31;14.17;;;11.10;;
20609;SDS011;10463;52.378;9.688;2024-01-10T12:36:18;12.73;;;10.00;;
20609;SDS011;10463;52.378;9.688;2024-01-10T12:39:04;14.20;;;10.90;;
20609;SDS011;10463;52.378;9.688;2024-01-10T12:41:50;14.03;;;10.47;;
20609;SDS011;10463;52.378;9.688;2024-01-10T12:44:35;13.13;;;10.90;;
20609;SDS011;10463;52.378;9.688;2024-01-10T12:47:20;14.63;;;11.00;;
20609;SDS011;10463;52.378;9.688;2024-01-10T12:50:06;12.07;;;10.43;;
20609;SDS011;10463;52.378;9.688;2024-01-10T12:52:53;13.20;;;11.00;;
20609;SDS011;10463;52.378;9.688;2024-01-10T12:55:38;11.87;;;9.40;;
20609;SDS011;10463;52.378;9.688;2024-01-10T12:58:23;12.63;;;10.27;;
20609;SDS011;10463;52.378;9.688;2024-01-10T13:01:08;13.27;;;11.00;;
20609;SDS011;10463;52.378;9.688;2024-01-10T13:03:53;13.63;;;9.30;;
20609;SDS011;10463;52.378;9.688;2024-01-10T13:06:38;12.93;;;10.30;;
20609;SDS011;10463;52.378;9.688;2024-01-10T13:09:25;14.17;;;10.00;;
20609;SDS011;10463;52.378;9.688;2024-01-10T13:12:10;10.87;;;9.10;;
20609;SDS011;10463;52.378;9.688;2024-01-10T13:14:54;12.53;;;9.90;;
20609;SDS011;10463;52.378;9.688;2024-01-10T13:17:39;12.33;;;10.03;;
20609;SDS011;10463;52.378;9.688;2024-01-10T13:20:23;12.03;;;9.90;;
20609;SDS011;10463;52.378;9.688;2024-01-10T13:23:08;12.40;;;9.87;;
20609;SDS011;10463;52.378;9.688;2024-01-10T13:25:55;11.10;;;8.93;;
20609;SDS011;10463;52.378;9.688;2024-01-10T13:28:39;10.80;;;8.70;;
20609;SDS011;10463;52.378;9.688;2024-01-10T13:31:24;10.50;;;8.50;;
20609;SDS011;10463;52.378;9.688;2024-01-10T13:34:09;13.00;;;9.47;;
20609;SDS011;10463;52.378;9.688;2024-01-10T13:36:55;11.67;;;9.03;;
20609;SDS011;10463;52.378;9.688;2024-01-10T13:39:40;10.27;;;8.03;;
20609;SDS011;10463;52.378;9.688;2024-01-10T13:42:27;12.43;;;9.20;;
20609;SDS011;10463;52.378;9.688;2024-01-10T13:45:11;12.27;;;9.20;;
20609;SDS011;10463;52.378;9.688;2024-01-10T13:47:56;10.73;;;9.10;;
20609;SDS011;10463;52.378;9.688;2024-01-10T13:50:40;10.50;;;8.07;;
20609;SDS011;10463;52.378;9.688;2024-01-10T13:53:25;10.77;;;8.50;;
20609;SDS011;10463;52.378;9.688;2024-01-10T13:56:10;11.60;;;9.03;;
20609;SDS011;10463;52.378;9.688;2024-01-10T13:58:57;10.87;;;8.47;;
20609;SDS011;10463;52.378;9.688;2024-01-10T14:01:41;11.13;;;8.80;;
20609;SDS011;10463;52.378;9.688;2024-01-10T14:04:26;10.73;;;7.80;;
20609;SDS011;10463;52.378;9.688;2024-01-10T14:07:11;11.13;;;8.40;;
20609;SDS011;10463;52.378;9.688;2024-01-10T14:09:55;10.67;;;8.20;;
20609;SDS011;10463;52.378;9.688;2024-01-10T14:12:40;10.03;;;8.57;;
20609;SDS011;10463;52.378;9.688;2024-01-10T14:15:26;11.23;;;8.93;;
20609;SDS011;10463;52.378;9.688;2024-01-10T14:18:10;12.30;;;8.20;;
20609;SDS011;10463;52.378;9.688;2024-01-10T14:20:55;9.50;;;7.67;;
20609;SDS011;10463;52.378;9.688;2024-01-10T14:23:39;11.13;;;7.97;;
20609;SDS011;10463;52.378;9.688;2024-01-10T14:26:24;11.63;;;8.23;;
20609;SDS011;10463;52.378;9.688;2024-01-10T14:29:10;9.77;;;7.53;;
20609;SDS011;10463;52.378;9.688;2024-01-10T14:31:56;9.73;;;7.50;;
20609;SDS011;10463;52.378;9.688;2024-01-10T14:34:40;10.40;;;8.00;;
20609;SDS011;10463;52.378;9.688;2024-01-10T14:37:25;8.93;;;6.90;;
20609;SDS011;10463;52.378;9.688;2024-01-10T14:40:10;10.03;;;7.90;;
20609;SDS011;10463;52.378;9.688;2024-01-10T14:42:55;8.00;;;6.60;;
20609;SDS011;10463;52.378;9.688;2024-01-10T14:45:39;12.00;;;8.20;;
20609;SDS011;10463;52.378;9.688;2024-01-10T14:48:25;10.13;;;7.33;;
20609;SDS011;10463;52.378;9.688;2024-01-10T14:51:10;9.83;;;7.77;;
20609;SDS011;10463;52.378;9.688;2024-01-10T14:53:54;9.90;;;7.40;;
20609;SDS011;10463;52.378;9.688;2024-01-10T14:56:39;11.47;;;8.47;;
20609;SDS011;10463;52.378;9.688;2024-01-10T14:59:26;8.37;;;7.10;;
20609;SDS011;10463;52.378;9.688;2024-01-10T15:02:11;8.90;;;7.90;;
20609;SDS011;10463;52.378;9.688;2024-01-10T15:04:57;10.20;;;7.03;;
20609;SDS011;10463;52.378;9.688;2024-01-10T15:07:41;11.63;;;7.70;;
20609;SDS011;10463;52.378;9.688;2024-01-10T15:10:27;8.60;;;6.90;;
20609;SDS011;10463;52.378;9.688;2024-01-10T15:13:12;9.13;;;7.03;;
20609;SDS011;10463;52.378;9.688;2024-01-10T15:15:58;8.67;;;6.90;;
20609;SDS011;10463;52.378;9.688;2024-01-10T15:18:43;8.10;;;6.33;;
20609;SDS011;10463;52.378;9.688;2024-01-10T15:21:29;8.93;;;6.40;;
20609;SDS011;10463;52.378;9.688;2024-01-10T15:24:13;8.53;;;6.60;;
20609;SDS011;10463;52.378;9.688;2024-01-10T15:26:58;12.03;;;7.17;;
20609;SDS011;10463;52.378;9.688;2024-01-10T15:29:50;7.87;;;6.47;;
20609;SDS011;10463;52.378;9.688;2024-01-10T15:32:34;8.30;;;7.20;;
20609;SDS011;10463;52.378;9.688;2024-01-10T15:35:19;8.27;;;6.80;;
20609;SDS011;10463;52.378;9.688;2024-01-10T15:38:05;9.43;;;7.40;;
20609;SDS011;10463;52.378;9.688;2024-01-10T15:40:49;7.60;;;6.10;;
20609;SDS011;10463;52.378;9.688;2024-01-10T15:43:34;9.40;;;7.00;;
20609;SDS011;10463;52.378;9.688;2024-01-10T15:46:19;7.77;;;5.93;;
20609;SDS011;10463;52.378;9.688;2024-01-10T15:49:04;8.97;;;7.20;;
20609;SDS011;10463;52.378;9.688;2024-01-10T15:51:48;7.70;;;6.13;;
20609;SDS011;10463;52.378;9.688;2024-01-10T15:54:34;7.20;;;6.50;;
20609;SDS011;10463;52.378;9.688;2024-01-10T15:57:21;7.40;;;5.77;;
20609;SDS011;10463;52.378;9.688;2024-01-10T16:00:09;8.80;;;5.93;;
20609;SDS011;10463;52.378;9.688;2024-01-10T16:02:54;8.43;;;6.50;;
20609;SDS011;10463;52.378;9.688;2024-01-10T16:05:40;9.37;;;6.80;;
20609;SDS011;10463;52.378;9.688;2024-01-10T16:08:24;7.67;;;6.00;;
20609;SDS011;10463;52.378;9.688;2024-01-10T16:11:10;8.40;;;6.80;;
20609;SDS011;10463;52.378;9.688;2024-01-10T16:13:55;8.20;;;6.20;;
20609;SDS011;10463;52.378;9.688;2024-01-10T16:16:40;10.20;;;6.43;;
20609;SDS011;10463;52.378;9.688;2024-01-10T16:19:25;8.97;;;6.70;;
20609;SDS011;10463;52.378;9.688;2024-01-10T16:22:09;8.93;;;6.13;;
20609;SDS011;10463;52.378;9.688;2024-01-10T16:24:54;7.60;;;6.20;;
20609;SDS011;10463;52.378;9.688;2024-01-10T16:27:40;7.43;;;5.63;;
20609;SDS011;10463;52.378;9.688;2024-01-10T16:30:24;6.23;;;4.83;;
20609;SDS011;10463;52.378;9.688;2024-01-10T16:33:09;7.50;;;5.53;;
20609;SDS011;10463;52.378;9.688;2024-01-10T16:35:53;8.47;;;6.60;;